sensor_id;sensor_type;location;lat;lon;timestamp;P1;durP1;ratioP1;P2;durP2;ratioP2
62616;SDS011;62539;51.190;6.808;2023-07-20T00:01:25;5.63;;;1.42;;
62616;SDS011;62539;51.190;6.808;2023-07-20T00:03:50;2.53;;;1.60;;
62616;SDS011;62539;51.190;6.808;2023-07-20T00:06:26;3.92;;;1.60;;
62616;SDS011;62539;51.190;6.808;2023-07-20T00:08:53;5.40;;;1.70;;
62616;SDS011;62539;51.190;6.808;2023-07-20T00:11:25;3.38;;;1.50;;
62616;SDS011;62539;51.190;6.808;2023-07-20T00:13:52;5.70;;;1.60;;
62616;SDS011;62539;51.190;6.808;2023-07-20T00:16:18;3.10;;;1.70;;
62616;SDS011;62539;51.190;6.808;2023-07-20T00:18:43;1.60;;;1.50;;
62616;SDS011;62539;51.190;6.808;2023-07-20T00:21:09;3.03;;;1.80;;
62616;SDS011;62539;51.190;6.808;2023-07-20T00:23:35;2.92;;;1.50;;
62616;SDS011;62539;51.190;6.808;2023-07-20T00:26:00;5.82;;;2.08;;
62616;SDS011;62539;51.190;6.808;2023-07-20T00:28:26;3.28;;;1.70;;
62616;SDS011;62539;51.190;6.808;2023-07-20T00:30:51;2.97;;;1.52;;
62616;SDS011;62539;51.190;6.808;2023-07-20T00:33:17;5.15;;;1.90;;
62616;SDS011;62539;51.190;6.808;2023-07-20T00:35:43;3.35;;;1.70;;
62616;SDS011;62539;51.190;6.808;2023-07-20T00:38:09;8.02;;;1.77;;
62616;SDS011;62539;51.190;6.808;2023-07-20T00:40:38;3.50;;;1.80;;
62616;SDS011;62539;51.190;6.808;2023-07-20T00:43:05;1.92;;;1.42;;
62616;SDS011;62539;51.190;6.808;2023-07-20T00:45:31;2.20;;;1.58;;
62616;SDS011;62539;51.190;6.808;2023-07-20T00:47:59;2.20;;;1.60;;
62616;SDS011;62539;51.190;6.808;2023-07-20T00:50:27;2.10;;;1.30;;
62616;SDS011;62539;51.190;6.808;2023-07-20T00:52:57;2.08;;;1.50;;
62616;SDS011;62539;51.190;6.808;2023-07-20T00:55:23;2.63;;;1.65;;
62616;SDS011;62539;51.190;6.808;2023-07-20T00:57:50;2.45;;;1.48;;
62616;SDS011;62539;51.190;6.808;2023-07-20T01:00:16;3.30;;;1.48;;
62616;SDS011;62539;51.190;6.808;2023-07-20T01:02:43;1.83;;;1.40;;
62616;SDS011;62539;51.190;6.808;2023-07-20T01:05:08;2.45;;;1.52;;
62616;SDS011;62539;51.190;6.808;2023-07-20T01:07:35;3.38;;;1.58;;
62616;SDS011;62539;51.190;6.808;2023-07-20T01:12:43;1.83;;;1.38;;
62616;SDS011;62539;51.190;6.808;2023-07-20T01:15:12;3.20;;;1.88;;
62616;SDS011;62539;51.190;6.808;2023-07-20T01:17:38;2.25;;;1.60;;
62616;SDS011;62539;51.190;6.808;2023-07-20T01:20:04;2.45;;;1.42;;
62616;SDS011;62539;51.190;6.808;2023-07-20T01:25:54;3.95;;;1.35;;
62616;SDS011;62539;51.190;6.808;2023-07-20T01:31:30;2.63;;;1.60;;
62616;SDS011;62539;51.190;6.808;2023-07-20T01:34:01;1.88;;;1.40;;
62616;SDS011;62539;51.190;6.808;2023-07-20T01:36:31;4.03;;;1.50;;
62616;SDS011;62539;51.190;6.808;2023-07-20T01:39:02;2.97;;;1.33;;
62616;SDS011;62539;51.190;6.808;2023-07-20T01:41:29;2.05;;;1.10;;
62616;SDS011;62539;51.190;6.808;2023-07-20T01:43:58;5.57;;;1.30;;
62616;SDS011;62539;51.190;6.808;2023-07-20T01:46:24;3.92;;;1.60;;
62616;SDS011;62539;51.190;6.808;2023-07-20T01:48:50;1.60;;;1.38;;
62616;SDS011;62539;51.190;6.808;2023-07-20T01:51:15;2.60;;;1.60;;
62616;SDS011;62539;51.190;6.808;2023-07-20T01:53:42;2.50;;;1.60;;
62616;SDS011;62539;51.190;6.808;2023-07-20T01:56:08;6.55;;;1.45;;
62616;SDS011;62539;51.190;6.808;2023-07-20T01:58:33;2.45;;;1.40;;
62616;SDS011;62539;51.190;6.808;2023-07-20T02:00:59;1.67;;;1.25;;
62616;SDS011;62539;51.190;6.808;2023-07-20T02:03:26;2.97;;;1.30;;
62616;SDS011;62539;51.190;6.808;2023-07-20T02:05:51;3.28;;;1.60;;
62616;SDS011;62539;51.190;6.808;2023-07-20T02:08:17;2.63;;;1.65;;
62616;SDS011;62539;51.190;6.808;2023-07-20T02:10:45;4.65;;;1.40;;
62616;SDS011;62539;51.190;6.808;2023-07-20T02:13:12;1.73;;;1.40;;
62616;SDS011;62539;51.190;6.808;2023-07-20T02:15:37;2.58;;;1.50;;
62616;SDS011;62539;51.190;6.808;2023-07-20T02:18:03;2.47;;;1.20;;
62616;SDS011;62539;51.190;6.808;2023-07-20T02:20:28;3.25;;;1.50;;
62616;SDS011;62539;51.190;6.808;2023-07-20T02:22:54;2.92;;;1.45;;
62616;SDS011;62539;51.190;6.808;2023-07-20T02:25:19;5.20;;;1.38;;
62616;SDS011;62539;51.190;6.808;2023-07-20T02:27:45;1.63;;;1.40;;
62616;SDS011;62539;51.190;6.808;2023-07-20T02:30:10;5.43;;;1.65;;
62616;SDS011;62539;51.190;6.808;2023-07-20T02:32:36;2.63;;;1.52;;
62616;SDS011;62539;51.190;6.808;2023-07-20T02:35:02;1.30;;;1.17;;
62616;SDS011;62539;51.190;6.808;2023-07-20T02:37:28;3.10;;;1.35;;
62616;SDS011;62539;51.190;6.808;2023-07-20T02:39:54;2.38;;;1.50;;
62616;SDS011;62539;51.190;6.808;2023-07-20T02:42:20;1.95;;;1.30;;
62616;SDS011;62539;51.190;6.808;2023-07-20T02:44:47;3.65;;;1.52;;
62616;SDS011;62539;51.190;6.808;2023-07-20T02:47:13;2.15;;;1.25;;
62616;SDS011;62539;51.190;6.808;2023-07-20T02:49:39;4.07;;;1.35;;
62616;SDS011;62539;51.190;6.808;2023-07-20T02:52:04;3.40;;;1.30;;
62616;SDS011;62539;51.190;6.808;2023-07-20T02:54:30;2.58;;;1.13;;
62616;SDS011;62539;51.190;6.808;2023-07-20T02:56:56;1.77;;;1.23;;
62616;SDS011;62539;51.190;6.808;2023-07-20T02:59:21;3.50;;;1.40;;
62616;SDS011;62539;51.190;6.808;2023-07-20T03:01:47;3.60;;;1.33;;
62616;SDS011;62539;51.190;6.808;2023-07-20T03:04:12;1.98;;;1.10;;
62616;SDS011;62539;51.190;6.808;2023-07-20T03:06:38;2.83;;;1.25;;
62616;SDS011;62539;51.190;6.808;2023-07-20T03:09:03;6.53;;;1.88;;
62616;SDS011;62539;51.190;6.808;2023-07-20T03:11:29;2.55;;;1.40;;
62616;SDS011;62539;51.190;6.808;2023-07-20T03:13:55;2.42;;;1.50;;
62616;SDS011;62539;51.190;6.808;2023-07-20T03:16:21;3.28;;;2.17;;
62616;SDS011;62539;51.190;6.808;2023-07-20T03:18:50;2.72;;;1.60;;
62616;SDS011;62539;51.190;6.808;2023-07-20T03:21:15;3.80;;;1.60;;
62616;SDS011;62539;51.190;6.808;2023-07-20T03:23:41;2.75;;;1.50;;
62616;SDS011;62539;51.190;6.808;2023-07-20T03:26:07;2.13;;;1.60;;
62616;SDS011;62539;51.190;6.808;2023-07-20T03:28:34;4.07;;;1.70;;
62616;SDS011;62539;51.190;6.808;2023-07-20T03:31:01;2.58;;;1.50;;
62616;SDS011;62539;51.190;6.808;2023-07-20T03:33:28;6.20;;;1.88;;
62616;SDS011;62539;51.190;6.808;2023-07-20T03:35:56;3.95;;;1.55;;
62616;SDS011;62539;51.190;6.808;2023-07-20T03:38:23;2.88;;;1.55;;
62616;SDS011;62539;51.190;6.808;2023-07-20T03:40:56;3.22;;;1.33;;
62616;SDS011;62539;51.190;6.808;2023-07-20T03:43:24;3.17;;;1.77;;
62616;SDS011;62539;51.190;6.808;2023-07-20T03:45:51;3.53;;;1.83;;
62616;SDS011;62539;51.190;6.808;2023-07-20T03:48:19;2.35;;;1.35;;
62616;SDS011;62539;51.190;6.808;2023-07-20T03:50:47;4.25;;;1.80;;
62616;SDS011;62539;51.190;6.808;2023-07-20T03:53:15;2.55;;;1.75;;
62616;SDS011;62539;51.190;6.808;2023-07-20T03:55:44;2.60;;;1.52;;
62616;SDS011;62539;51.190;6.808;2023-07-20T03:58:11;3.97;;;1.73;;
62616;SDS011;62539;51.190;6.808;2023-07-20T04:00:38;4.32;;;2.15;;
62616;SDS011;62539;51.190;6.808;2023-07-20T04:03:04;4.78;;;1.50;;
62616;SDS011;62539;51.190;6.808;2023-07-20T04:05:30;3.15;;;1.60;;
62616;SDS011;62539;51.190;6.808;2023-07-20T04:07:55;3.13;;;1.75;;
62616;SDS011;62539;51.190;6.808;2023-07-20T04:10:21;3.33;;;1.73;;
62616;SDS011;62539;51.190;6.808;2023-07-20T04:12:46;3.58;;;1.85;;
62616;SDS011;62539;51.190;6.808;2023-07-20T04:15:12;4.18;;;1.70;;
62616;SDS011;62539;51.190;6.808;2023-07-20T04:17:39;4.30;;;2.00;;
62616;SDS011;62539;51.190;6.808;2023-07-20T04:20:05;2.72;;;1.75;;
62616;SDS011;62539;51.190;6.808;2023-07-20T04:22:32;2.58;;;1.73;;
62616;SDS011;62539;51.190;6.808;2023-07-20T04:24:58;2.55;;;1.50;;
62616;SDS011;62539;51.190;6.808;2023-07-20T04:27:23;4.07;;;1.60;;
62616;SDS011;62539;51.190;6.808;2023-07-20T04:29:49;3.75;;;1.80;;
62616;SDS011;62539;51.190;6.808;2023-07-20T04:32:14;6.00;;;1.70;;
62616;SDS011;62539;51.190;6.808;2023-07-20T04:34:40;4.95;;;1.83;;
62616;SDS011;62539;51.190;6.808;2023-07-20T04:37:05;4.95;;;1.60;;
62616;SDS011;62539;51.190;6.808;2023-07-20T04:39:31;2.97;;;1.75;;
62616;SDS011;62539;51.190;6.808;2023-07-20T04:41:57;2.80;;;1.52;;
62616;SDS011;62539;51.190;6.808;2023-07-20T04:44:23;4.43;;;1.67;;
62616;SDS011;62539;51.190;6.808;2023-07-20T04:46:48;3.53;;;1.60;;
62616;SDS011;62539;51.190;6.808;2023-07-20T04:49:13;4.38;;;1.95;;
62616;SDS011;62539;51.190;6.808;2023-07-20T04:51:39;5.57;;;1.50;;
62616;SDS011;62539;51.190;6.808;2023-07-20T04:54:04;4.78;;;1.60;;
62616;SDS011;62539;51.190;6.808;2023-07-20T04:56:30;3.47;;;1.50;;
62616;SDS011;62539;51.190;6.808;2023-07-20T04:58:55;4.20;;;1.75;;
62616;SDS011;62539;51.190;6.808;2023-07-20T05:01:22;4.18;;;1.70;;
62616;SDS011;62539;51.190;6.808;2023-07-20T05:03:48;3.85;;;1.77;;
62616;SDS011;62539;51.190;6.808;2023-07-20T05:06:14;2.63;;;1.50;;
62616;SDS011;62539;51.190;6.808;2023-07-20T05:08:40;4.38;;;2.05;;
62616;SDS011;62539;51.190;6.808;2023-07-20T05:11:06;3.75;;;1.65;;
62616;SDS011;62539;51.190;6.808;2023-07-20T05:13:32;2.97;;;1.50;;
62616;SDS011;62539;51.190;6.808;2023-07-20T05:15:58;3.63;;;1.70;;
62616;SDS011;62539;51.190;6.808;2023-07-20T05:18:24;4.72;;;1.90;;
62616;SDS011;62539;51.190;6.808;2023-07-20T05:20:50;2.80;;;1.65;;
62616;SDS011;62539;51.190;6.808;2023-07-20T05:23:19;3.08;;;1.77;;
62616;SDS011;62539;51.190;6.808;2023-07-20T05:25:53;3.25;;;1.63;;
62616;SDS011;62539;51.190;6.808;2023-07-20T05:28:23;4.82;;;2.03;;
62616;SDS011;62539;51.190;6.808;2023-07-20T05:30:50;3.38;;;1.80;;
62616;SDS011;62539;51.190;6.808;2023-07-20T05:33:16;6.80;;;2.20;;
62616;SDS011;62539;51.190;6.808;2023-07-20T05:35:44;3.95;;;2.30;;
62616;SDS011;62539;51.190;6.808;2023-07-20T05:38:09;2.65;;;1.80;;
62616;SDS011;62539;51.190;6.808;2023-07-20T05:40:37;3.75;;;2.20;;
62616;SDS011;62539;51.190;6.808;2023-07-20T05:43:05;3.45;;;2.00;;
62616;SDS011;62539;51.190;6.808;2023-07-20T05:45:30;5.97;;;2.40;;
62616;SDS011;62539;51.190;6.808;2023-07-20T05:47:55;2.83;;;1.90;;
62616;SDS011;62539;51.190;6.808;2023-07-20T05:50:21;5.05;;;2.42;;
62616;SDS011;62539;51.190;6.808;2023-07-20T05:52:46;7.70;;;2.58;;
62616;SDS011;62539;51.190;6.808;2023-07-20T05:55:12;3.75;;;2.10;;
62616;SDS011;62539;51.190;6.808;2023-07-20T05:57:38;4.32;;;2.42;;
62616;SDS011;62539;51.190;6.808;2023-07-20T06:00:08;4.90;;;2.35;;
62616;SDS011;62539;51.190;6.808;2023-07-20T06:02:34;4.47;;;2.22;;
62616;SDS011;62539;51.190;6.808;2023-07-20T06:05:00;4.35;;;2.42;;
62616;SDS011;62539;51.190;6.808;2023-07-20T06:07:26;5.20;;;2.35;;
62616;SDS011;62539;51.190;6.808;2023-07-20T06:09:51;4.50;;;2.40;;
62616;SDS011;62539;51.190;6.808;2023-07-20T06:12:17;5.72;;;2.28;;
62616;SDS011;62539;51.190;6.808;2023-07-20T06:14:42;4.60;;;2.50;;
62616;SDS011;62539;51.190;6.808;2023-07-20T06:17:08;4.97;;;2.28;;
62616;SDS011;62539;51.190;6.808;2023-07-20T06:19:33;3.90;;;2.28;;
62616;SDS011;62539;51.190;6.808;2023-07-20T06:21:59;3.03;;;2.22;;
62616;SDS011;62539;51.190;6.808;2023-07-20T06:24:24;4.00;;;2.50;;
62616;SDS011;62539;51.190;6.808;2023-07-20T06:26:50;4.95;;;2.50;;
62616;SDS011;62539;51.190;6.808;2023-07-20T06:29:15;8.00;;;2.67;;
62616;SDS011;62539;51.190;6.808;2023-07-20T06:31:41;4.93;;;2.72;;
62616;SDS011;62539;51.190;6.808;2023-07-20T06:34:06;3.78;;;2.20;;
62616;SDS011;62539;51.190;6.808;2023-07-20T06:36:31;3.17;;;2.17;;
62616;SDS011;62539;51.190;6.808;2023-07-20T06:38:57;5.43;;;2.20;;
62616;SDS011;62539;51.190;6.808;2023-07-20T06:41:22;4.10;;;2.20;;
62616;SDS011;62539;51.190;6.808;2023-07-20T06:43:48;4.65;;;2.10;;
62616;SDS011;62539;51.190;6.808;2023-07-20T06:46:13;4.95;;;2.20;;
62616;SDS011;62539;51.190;6.808;2023-07-20T06:48:39;3.08;;;2.05;;
62616;SDS011;62539;51.190;6.808;2023-07-20T06:51:04;2.75;;;1.77;;
62616;SDS011;62539;51.190;6.808;2023-07-20T06:53:30;3.88;;;2.15;;
62616;SDS011;62539;51.190;6.808;2023-07-20T06:55:56;3.00;;;1.83;;
62616;SDS011;62539;51.190;6.808;2023-07-20T06:58:22;3.53;;;2.20;;
62616;SDS011;62539;51.190;6.808;2023-07-20T07:00:48;2.83;;;1.83;;
62616;SDS011;62539;51.190;6.808;2023-07-20T07:03:14;4.18;;;1.80;;
62616;SDS011;62539;51.190;6.808;2023-07-20T07:05:39;4.38;;;1.80;;
62616;SDS011;62539;51.190;6.808;2023-07-20T07:08:05;1.83;;;1.63;;
62616;SDS011;62539;51.190;6.808;2023-07-20T07:10:30;2.33;;;1.58;;
62616;SDS011;62539;51.190;6.808;2023-07-20T07:12:56;4.30;;;1.70;;
62616;SDS011;62539;51.190;6.808;2023-07-20T07:15:22;2.00;;;1.30;;
62616;SDS011;62539;51.190;6.808;2023-07-20T07:17:47;1.52;;;1.30;;
62616;SDS011;62539;51.190;6.808;2023-07-20T07:20:13;2.67;;;1.55;;
62616;SDS011;62539;51.190;6.808;2023-07-20T07:22:38;5.40;;;1.48;;
62616;SDS011;62539;51.190;6.808;2023-07-20T07:25:04;2.83;;;1.40;;
62616;SDS011;62539;51.190;6.808;2023-07-20T07:27:30;2.75;;;1.30;;
62616;SDS011;62539;51.190;6.808;2023-07-20T07:29:55;3.50;;;1.60;;
62616;SDS011;62539;51.190;6.808;2023-07-20T07:32:21;6.00;;;1.40;;
62616;SDS011;62539;51.190;6.808;2023-07-20T07:34:46;2.33;;;1.60;;
62616;SDS011;62539;51.190;6.808;2023-07-20T07:37:12;9.45;;;1.35;;
62616;SDS011;62539;51.190;6.808;2023-07-20T07:39:38;8.82;;;1.67;;
62616;SDS011;62539;51.190;6.808;2023-07-20T07:42:04;2.70;;;1.42;;
62616;SDS011;62539;51.190;6.808;2023-07-20T07:44:30;3.25;;;1.27;;
62616;SDS011;62539;51.190;6.808;2023-07-20T07:46:56;1.88;;;1.27;;
62616;SDS011;62539;51.190;6.808;2023-07-20T07:49:22;2.28;;;1.23;;
62616;SDS011;62539;51.190;6.808;2023-07-20T07:51:47;2.85;;;1.40;;
62616;SDS011;62539;51.190;6.808;2023-07-20T07:54:13;3.38;;;1.42;;
62616;SDS011;62539;51.190;6.808;2023-07-20T07:56:39;2.47;;;1.30;;
62616;SDS011;62539;51.190;6.808;2023-07-20T07:59:04;3.40;;;1.20;;
62616;SDS011;62539;51.190;6.808;2023-07-20T08:01:29;2.60;;;1.20;;
62616;SDS011;62539;51.190;6.808;2023-07-20T08:03:55;2.80;;;1.20;;
62616;SDS011;62539;51.190;6.808;2023-07-20T08:06:21;1.30;;;1.00;;
62616;SDS011;62539;51.190;6.808;2023-07-20T08:08:46;1.85;;;0.93;;
62616;SDS011;62539;51.190;6.808;2023-07-20T08:11:12;2.40;;;1.30;;
62616;SDS011;62539;51.190;6.808;2023-07-20T08:13:38;2.40;;;1.30;;
62616;SDS011;62539;51.190;6.808;2023-07-20T08:16:03;1.88;;;1.10;;
62616;SDS011;62539;51.190;6.808;2023-07-20T08:18:29;2.00;;;0.80;;
62616;SDS011;62539;51.190;6.808;2023-07-20T08:20:54;1.60;;;0.90;;
62616;SDS011;62539;51.190;6.808;2023-07-20T08:23:20;2.88;;;1.10;;
62616;SDS011;62539;51.190;6.808;2023-07-20T08:25:46;4.15;;;1.23;;
62616;SDS011;62539;51.190;6.808;2023-07-20T08:28:11;1.85;;;1.00;;
62616;SDS011;62539;51.190;6.808;2023-07-20T08:30:40;1.77;;;1.08;;
62616;SDS011;62539;51.190;6.808;2023-07-20T08:33:09;1.70;;;1.05;;
62616;SDS011;62539;51.190;6.808;2023-07-20T08:35:36;1.90;;;1.05;;
62616;SDS011;62539;51.190;6.808;2023-07-20T08:38:01;1.65;;;1.00;;
62616;SDS011;62539;51.190;6.808;2023-07-20T08:40:27;3.15;;;0.88;;
62616;SDS011;62539;51.190;6.808;2023-07-20T08:42:53;1.30;;;0.80;;
62616;SDS011;62539;51.190;6.808;2023-07-20T08:45:20;1.80;;;0.75;;
62616;SDS011;62539;51.190;6.808;2023-07-20T08:47:48;1.15;;;0.90;;
62616;SDS011;62539;51.190;6.808;2023-07-20T08:50:15;1.23;;;0.70;;
62616;SDS011;62539;51.190;6.808;2023-07-20T08:52:41;1.48;;;0.70;;
62616;SDS011;62539;51.190;6.808;2023-07-20T08:55:07;1.60;;;0.80;;
62616;SDS011;62539;51.190;6.808;2023-07-20T08:57:33;1.48;;;0.85;;
62616;SDS011;62539;51.190;6.808;2023-07-20T09:00:01;1.35;;;0.80;;
62616;SDS011;62539;51.190;6.808;2023-07-20T09:02:38;0.93;;;0.80;;
62616;SDS011;62539;51.190;6.808;2023-07-20T09:05:07;1.10;;;0.75;;
62616;SDS011;62539;51.190;6.808;2023-07-20T09:07:35;0.93;;;0.70;;
62616;SDS011;62539;51.190;6.808;2023-07-20T09:10:01;1.13;;;0.60;;
62616;SDS011;62539;51.190;6.808;2023-07-20T09:12:31;0.80;;;0.80;;
62616;SDS011;62539;51.190;6.808;2023-07-20T09:15:00;1.77;;;0.80;;
62616;SDS011;62539;51.190;6.808;2023-07-20T09:17:26;2.38;;;0.60;;
62616;SDS011;62539;51.190;6.808;2023-07-20T09:19:52;1.85;;;0.60;;
62616;SDS011;62539;51.190;6.808;2023-07-20T09:22:17;4.38;;;0.80;;
62616;SDS011;62539;51.190;6.808;2023-07-20T09:24:43;0.70;;;0.50;;
62616;SDS011;62539;51.190;6.808;2023-07-20T09:27:09;0.47;;;0.45;;
62616;SDS011;62539;51.190;6.808;2023-07-20T09:29:46;1.10;;;0.50;;
62616;SDS011;62539;51.190;6.808;2023-07-20T09:32:13;1.83;;;0.50;;
62616;SDS011;62539;51.190;6.808;2023-07-20T09:34:45;3.10;;;0.70;;
62616;SDS011;62539;51.190;6.808;2023-07-20T09:37:11;0.47;;;0.47;;
62616;SDS011;62539;51.190;6.808;2023-07-20T09:39:44;13.13;;;1.02;;
62616;SDS011;62539;51.190;6.808;2023-07-20T09:42:11;1.85;;;0.50;;
62616;SDS011;62539;51.190;6.808;2023-07-20T09:44:40;0.70;;;0.50;;
62616;SDS011;62539;51.190;6.808;2023-07-20T09:47:08;0.70;;;0.70;;
62616;SDS011;62539;51.190;6.808;2023-07-20T09:49:38;10.18;;;0.70;;
62616;SDS011;62539;51.190;6.808;2023-07-20T09:52:10;2.00;;;0.60;;
62616;SDS011;62539;51.190;6.808;2023-07-20T09:54:40;0.87;;;0.50;;
62616;SDS011;62539;51.190;6.808;2023-07-20T09:59:33;3.97;;;0.50;;
62616;SDS011;62539;51.190;6.808;2023-07-20T10:02:00;0.95;;;0.50;;
62616;SDS011;62539;51.190;6.808;2023-07-20T10:04:33;1.33;;;0.70;;
62616;SDS011;62539;51.190;6.808;2023-07-20T10:07:01;2.20;;;0.50;;
62616;SDS011;62539;51.190;6.808;2023-07-20T10:09:36;3.80;;;0.68;;
62616;SDS011;62539;51.190;6.808;2023-07-20T10:12:06;0.55;;;0.43;;
62616;SDS011;62539;51.190;6.808;2023-07-20T10:14:35;0.50;;;0.50;;
62616;SDS011;62539;51.190;6.808;2023-07-20T10:17:07;5.22;;;0.60;;
62616;SDS011;62539;51.190;6.808;2023-07-20T10:19:43;9.95;;;0.70;;
62616;SDS011;62539;51.190;6.808;2023-07-20T10:22:19;3.30;;;0.63;;
62616;SDS011;62539;51.190;6.808;2023-07-20T10:24:52;3.65;;;0.70;;
62616;SDS011;62539;51.190;6.808;2023-07-20T10:27:21;3.13;;;0.57;;
62616;SDS011;62539;51.190;6.808;2023-07-20T10:29:47;1.25;;;0.70;;
62616;SDS011;62539;51.190;6.808;2023-07-20T10:32:15;3.42;;;0.60;;
62616;SDS011;62539;51.190;6.808;2023-07-20T10:34:42;2.67;;;0.60;;
62616;SDS011;62539;51.190;6.808;2023-07-20T10:37:07;3.97;;;0.50;;
62616;SDS011;62539;51.190;6.808;2023-07-20T10:39:33;2.58;;;0.80;;
62616;SDS011;62539;51.190;6.808;2023-07-20T10:42:03;0.98;;;0.50;;
62616;SDS011;62539;51.190;6.808;2023-07-20T10:44:32;0.65;;;0.45;;
62616;SDS011;62539;51.190;6.808;2023-07-20T10:47:02;1.27;;;0.60;;
62616;SDS011;62539;51.190;6.808;2023-07-20T10:49:34;5.97;;;0.73;;
62616;SDS011;62539;51.190;6.808;2023-07-20T10:52:03;1.75;;;0.70;;
62616;SDS011;62539;51.190;6.808;2023-07-20T10:56:57;1.33;;;0.52;;
62616;SDS011;62539;51.190;6.808;2023-07-20T10:59:47;3.38;;;0.60;;
62616;SDS011;62539;51.190;6.808;2023-07-20T11:02:12;0.73;;;0.50;;
62616;SDS011;62539;51.190;6.808;2023-07-20T11:07:09;1.85;;;0.73;;
62616;SDS011;62539;51.190;6.808;2023-07-20T11:09:35;0.57;;;0.47;;
62616;SDS011;62539;51.190;6.808;2023-07-20T11:14:55;0.50;;;0.50;;
62616;SDS011;62539;51.190;6.808;2023-07-20T11:17:28;1.05;;;0.47;;
62616;SDS011;62539;51.190;6.808;2023-07-20T11:19:56;2.22;;;0.70;;
62616;SDS011;62539;51.190;6.808;2023-07-20T11:22:25;0.80;;;0.38;;
62616;SDS011;62539;51.190;6.808;2023-07-20T11:24:54;1.65;;;0.60;;
62616;SDS011;62539;51.190;6.808;2023-07-20T11:27:21;0.52;;;0.30;;
62616;SDS011;62539;51.190;6.808;2023-07-20T11:29:47;0.40;;;0.40;;
62616;SDS011;62539;51.190;6.808;2023-07-20T11:32:20;0.43;;;0.40;;
62616;SDS011;62539;51.190;6.808;2023-07-20T11:34:47;1.80;;;0.52;;
62616;SDS011;62539;51.190;6.808;2023-07-20T11:37:13;0.50;;;0.43;;
62616;SDS011;62539;51.190;6.808;2023-07-20T11:39:39;1.20;;;0.43;;
62616;SDS011;62539;51.190;6.808;2023-07-20T11:42:05;0.60;;;0.50;;
62616;SDS011;62539;51.190;6.808;2023-07-20T11:44:31;1.02;;;0.60;;
62616;SDS011;62539;51.190;6.808;2023-07-20T11:52:07;1.05;;;0.65;;
62616;SDS011;62539;51.190;6.808;2023-07-20T11:54:40;3.28;;;0.40;;
62616;SDS011;62539;51.190;6.808;2023-07-20T11:57:07;2.03;;;0.60;;
62616;SDS011;62539;51.190;6.808;2023-07-20T11:59:52;0.82;;;0.50;;
62616;SDS011;62539;51.190;6.808;2023-07-20T12:02:29;1.02;;;0.40;;
62616;SDS011;62539;51.190;6.808;2023-07-20T12:04:55;1.33;;;0.45;;
62616;SDS011;62539;51.190;6.808;2023-07-20T12:07:21;1.38;;;0.60;;
62616;SDS011;62539;51.190;6.808;2023-07-20T12:10:08;0.40;;;0.40;;
62616;SDS011;62539;51.190;6.808;2023-07-20T12:12:39;0.57;;;0.40;;
62616;SDS011;62539;51.190;6.808;2023-07-20T12:15:20;0.50;;;0.50;;
62616;SDS011;62539;51.190;6.808;2023-07-20T12:20:30;2.35;;;0.50;;
62616;SDS011;62539;51.190;6.808;2023-07-20T12:23:01;0.50;;;0.50;;
62616;SDS011;62539;51.190;6.808;2023-07-20T12:25:38;1.52;;;0.57;;
62616;SDS011;62539;51.190;6.808;2023-07-20T12:28:08;1.48;;;0.50;;
62616;SDS011;62539;51.190;6.808;2023-07-20T12:30:37;0.82;;;0.60;;
62616;SDS011;62539;51.190;6.808;2023-07-20T12:33:04;3.35;;;0.50;;
62616;SDS011;62539;51.190;6.808;2023-07-20T12:35:30;0.55;;;0.38;;
62616;SDS011;62539;51.190;6.808;2023-07-20T12:37:56;0.88;;;0.52;;
62616;SDS011;62539;51.190;6.808;2023-07-20T12:40:22;0.75;;;0.50;;
62616;SDS011;62539;51.190;6.808;2023-07-20T12:42:48;1.08;;;0.50;;
62616;SDS011;62539;51.190;6.808;2023-07-20T12:45:13;0.77;;;0.60;;
62616;SDS011;62539;51.190;6.808;2023-07-20T12:47:39;3.70;;;0.65;;
62616;SDS011;62539;51.190;6.808;2023-07-20T12:50:05;1.75;;;0.40;;
62616;SDS011;62539;51.190;6.808;2023-07-20T12:52:32;2.83;;;0.55;;
62616;SDS011;62539;51.190;6.808;2023-07-20T12:55:02;1.00;;;0.75;;
62616;SDS011;62539;51.190;6.808;2023-07-20T12:57:28;0.50;;;0.50;;
62616;SDS011;62539;51.190;6.808;2023-07-20T12:59:54;0.98;;;0.40;;
62616;SDS011;62539;51.190;6.808;2023-07-20T13:02:19;1.40;;;0.47;;
62616;SDS011;62539;51.190;6.808;2023-07-20T13:04:45;1.58;;;0.50;;
62616;SDS011;62539;51.190;6.808;2023-07-20T13:07:10;0.52;;;0.52;;
62616;SDS011;62539;51.190;6.808;2023-07-20T13:09:37;0.57;;;0.45;;
62616;SDS011;62539;51.190;6.808;2023-07-20T13:12:02;0.68;;;0.52;;
62616;SDS011;62539;51.190;6.808;2023-07-20T13:14:28;0.50;;;0.50;;
62616;SDS011;62539;51.190;6.808;2023-07-20T13:16:55;0.52;;;0.40;;
62616;SDS011;62539;51.190;6.808;2023-07-20T13:19:21;1.80;;;0.57;;
62616;SDS011;62539;51.190;6.808;2023-07-20T13:21:47;0.80;;;0.50;;
62616;SDS011;62539;51.190;6.808;2023-07-20T13:24:12;0.30;;;0.30;;
62616;SDS011;62539;51.190;6.808;2023-07-20T13:26:38;0.68;;;0.50;;
62616;SDS011;62539;51.190;6.808;2023-07-20T13:29:03;1.05;;;0.60;;
62616;SDS011;62539;51.190;6.808;2023-07-20T13:31:28;1.05;;;0.65;;
62616;SDS011;62539;51.190;6.808;2023-07-20T13:33:54;0.40;;;0.40;;
62616;SDS011;62539;51.190;6.808;2023-07-20T13:36:21;0.40;;;0.40;;
62616;SDS011;62539;51.190;6.808;2023-07-20T13:38:47;0.75;;;0.60;;
62616;SDS011;62539;51.190;6.808;2023-07-20T13:41:13;3.80;;;0.80;;
62616;SDS011;62539;51.190;6.808;2023-07-20T13:43:41;1.77;;;0.60;;
62616;SDS011;62539;51.190;6.808;2023-07-20T13:46:07;2.25;;;0.70;;
62616;SDS011;62539;51.190;6.808;2023-07-20T13:48:32;2.53;;;0.70;;
62616;SDS011;62539;51.190;6.808;2023-07-20T13:50:57;3.15;;;0.75;;
62616;SDS011;62539;51.190;6.808;2023-07-20T13:53:23;3.63;;;0.70;;
62616;SDS011;62539;51.190;6.808;2023-07-20T13:55:48;0.88;;;0.60;;
62616;SDS011;62539;51.190;6.808;2023-07-20T13:58:14;3.17;;;0.60;;
62616;SDS011;62539;51.190;6.808;2023-07-20T14:00:39;6.28;;;0.60;;
62616;SDS011;62539;51.190;6.808;2023-07-20T14:03:05;1.48;;;0.60;;
62616;SDS011;62539;51.190;6.808;2023-07-20T14:05:31;1.98;;;0.50;;
62616;SDS011;62539;51.190;6.808;2023-07-20T14:07:56;0.93;;;0.68;;
62616;SDS011;62539;51.190;6.808;2023-07-20T14:10:22;0.88;;;0.60;;
62616;SDS011;62539;51.190;6.808;2023-07-20T14:12:47;0.50;;;0.50;;
62616;SDS011;62539;51.190;6.808;2023-07-20T14:15:13;2.30;;;0.85;;
62616;SDS011;62539;51.190;6.808;2023-07-20T14:17:38;2.78;;;0.82;;
62616;SDS011;62539;51.190;6.808;2023-07-20T14:20:04;2.25;;;0.65;;
62616;SDS011;62539;51.190;6.808;2023-07-20T14:22:30;1.70;;;0.70;;
62616;SDS011;62539;51.190;6.808;2023-07-20T14:24:55;2.00;;;0.60;;
62616;SDS011;62539;51.190;6.808;2023-07-20T14:27:21;0.68;;;0.68;;
62616;SDS011;62539;51.190;6.808;2023-07-20T14:29:46;0.95;;;0.60;;
62616;SDS011;62539;51.190;6.808;2023-07-20T14:32:12;1.08;;;0.60;;
62616;SDS011;62539;51.190;6.808;2023-07-20T14:34:37;1.73;;;0.60;;
62616;SDS011;62539;51.190;6.808;2023-07-20T14:37:02;1.73;;;0.70;;
62616;SDS011;62539;51.190;6.808;2023-07-20T14:39:29;1.35;;;0.60;;
62616;SDS011;62539;51.190;6.808;2023-07-20T14:41:54;0.73;;;0.60;;
62616;SDS011;62539;51.190;6.808;2023-07-20T14:44:20;2.35;;;0.60;;
62616;SDS011;62539;51.190;6.808;2023-07-20T14:46:46;0.60;;;0.60;;
62616;SDS011;62539;51.190;6.808;2023-07-20T14:49:11;0.63;;;0.40;;
62616;SDS011;62539;51.190;6.808;2023-07-20T14:51:37;0.93;;;0.50;;
62616;SDS011;62539;51.190;6.808;2023-07-20T14:54:08;1.17;;;0.60;;
62616;SDS011;62539;51.190;6.808;2023-07-20T14:56:34;2.08;;;0.50;;
62616;SDS011;62539;51.190;6.808;2023-07-20T14:59:02;0.73;;;0.60;;
62616;SDS011;62539;51.190;6.808;2023-07-20T15:01:29;0.82;;;0.68;;
62616;SDS011;62539;51.190;6.808;2023-07-20T15:03:54;0.82;;;0.60;;
62616;SDS011;62539;51.190;6.808;2023-07-20T15:06:21;1.40;;;0.55;;
62616;SDS011;62539;51.190;6.808;2023-07-20T15:08:47;0.75;;;0.50;;
62616;SDS011;62539;51.190;6.808;2023-07-20T15:11:12;0.93;;;0.50;;
62616;SDS011;62539;51.190;6.808;2023-07-20T15:13:37;0.52;;;0.52;;